createdAt,value
2023-05-25T00:01:01.045Z,102301.38
2023-05-25T00:04:04.540Z,102303.38
2023-05-25T00:07:06.599Z,102305.38
2023-05-25T00:10:08.921Z,102299.47
2023-05-25T00:13:10.657Z,102303.16
2023-05-25T00:16:12.276Z,102304.38
2023-05-25T00:19:14.627Z,102295.72
2023-05-25T00:22:16.245Z,102303.09
2023-05-25T00:25:18.860Z,102290.91
2023-05-25T00:28:20.410Z,102295.56
2023-05-25T00:31:22.655Z,102294.09
2023-05-25T00:34:24.278Z,102296.06
2023-05-25T00:37:26.123Z,102303.44
2023-05-25T00:40:27.809Z,102301.09
2023-05-25T00:43:29.413Z,102307.44
2023-05-25T00:46:34.342Z,102304.25
2023-05-25T00:49:36.787Z,102295.59
2023-05-25T00:52:38.451Z,102293.97
2023-05-25T00:55:54.524Z,102299.47
2023-05-25T00:58:59.180Z,102293.47
2023-05-25T01:02:04.753Z,102294.56
2023-05-25T01:05:09.619Z,102297.47
2023-05-25T01:08:13.597Z,102299.47
2023-05-25T01:11:17.024Z,102313.81
2023-05-25T01:14:20.460Z,102303.34
2023-05-25T01:17:22.366Z,102297.34
2023-05-25T01:20:24.026Z,102297.53
2023-05-25T01:23:33.294Z,102292.50
2023-05-25T01:26:42.687Z,102299.78
2023-05-25T01:29:46.055Z,102300.78
2023-05-25T01:32:49.606Z,102293.00
2023-05-25T01:35:52.517Z,102296.78
2023-05-25T01:38:54.560Z,102298.75
2023-05-25T01:41:56.438Z,102296.28
2023-05-25T01:44:59.673Z,102304.34
2023-05-25T01:48:22.782Z,102304.44
2023-05-25T01:51:52.765Z,102309.06
2023-05-25T01:55:06.914Z,102306.63
2023-05-25T01:58:08.942Z,102310.34
2023-05-25T02:01:12.278Z,102312.22
2023-05-25T02:04:15.359Z,102310.53
2023-05-25T02:07:17.226Z,102313.28
2023-05-25T02:10:18.856Z,102317.84
2023-05-25T02:13:20.773Z,102314.34
2023-05-25T02:16:22.367Z,102311.84
2023-05-25T02:19:23.995Z,102311.88
2023-05-25T02:22:25.685Z,102304.88
2023-05-25T02:25:27.294Z,102301.47
2023-05-25T02:28:28.952Z,102309.53
2023-05-25T02:31:30.658Z,102306.97
2023-05-25T02:34:32.443Z,102301.75
2023-05-25T02:37:34.059Z,102314.13
2023-05-25T02:40:35.902Z,102306.25
2023-05-25T02:43:37.584Z,102307.22
2023-05-25T02:46:39.336Z,102316.88
2023-05-25T02:49:40.972Z,102310.69
2023-05-25T02:52:42.573Z,102318.72
2023-05-25T02:55:44.948Z,102316.13
2023-05-25T02:58:46.958Z,102320.59
2023-05-25T03:01:48.509Z,102326.88
2023-05-25T03:04:53.901Z,102319.94
2023-05-25T03:07:55.697Z,102319.13
2023-05-25T03:10:57.369Z,102321.88
2023-05-25T03:13:59.604Z,102321.03
2023-05-25T03:17:01.510Z,102328.13
2023-05-25T03:20:04.256Z,102332.63
2023-05-25T03:23:05.961Z,102341.47
2023-05-25T03:26:07.515Z,102340.56
2023-05-25T03:29:09.178Z,102343.22
2023-05-25T03:32:10.932Z,102342.34
2023-05-25T03:35:12.568Z,102350.25
2023-05-25T03:38:14.248Z,102351.13
2023-05-25T03:41:15.858Z,102347.59
2023-05-25T03:44:17.503Z,102352.00
2023-05-25T03:47:19.187Z,102355.53
2023-05-25T03:50:20.927Z,102361.69
2023-05-25T03:53:22.505Z,102359.84
2023-05-25T03:56:24.214Z,102356.28
2023-05-25T03:59:26.018Z,102366.81
2023-05-25T04:02:27.704Z,102363.19
2023-05-25T04:05:29.521Z,102355.97
2023-05-25T04:08:31.160Z,102361.19
2023-05-25T04:11:32.765Z,102355.78
2023-05-25T04:14:34.340Z,102358.38
2023-05-25T04:17:39.230Z,102360.06
2023-05-25T04:20:41.118Z,102361.75
2023-05-25T04:23:43.267Z,102359.88
2023-05-25T04:26:46.279Z,102363.28
2023-05-25T04:29:50.238Z,102367.63
2023-05-25T04:32:51.879Z,102377.31
2023-05-25T04:35:54.603Z,102382.53
2023-05-25T04:38:56.177Z,102373.63
2023-05-25T04:41:58.289Z,102380.63
2023-05-25T04:45:00.583Z,102379.66
2023-05-25T04:48:03.183Z,102384.88
2023-05-25T04:51:04.904Z,102390.91
2023-05-25T04:54:07.001Z,102390.72
2023-05-25T04:57:08.680Z,102394.16
2023-05-25T05:00:12.131Z,102394.88
2023-05-25T05:03:14.150Z,102397.38
2023-05-25T05:06:16.384Z,102405.09
2023-05-25T05:09:18.270Z,102399.59
2023-05-25T05:12:19.941Z,102400.25
2023-05-25T05:15:21.728Z,102398.25
2023-05-25T05:18:23.332Z,102404.19
2023-05-25T05:21:24.920Z,102400.41
2023-05-25T05:24:27.305Z,102407.22
2023-05-25T05:27:28.864Z,102400.81
2023-05-25T05:30:30.602Z,102405.00
2023-05-25T05:33:32.303Z,102405.66
2023-05-25T05:36:42.099Z,102413.38
2023-05-25T05:39:54.560Z,102413.09
2023-05-25T05:42:56.142Z,102415.50
2023-05-25T05:45:57.694Z,102414.41
2023-05-25T05:48:59.282Z,102420.03
2023-05-25T05:52:01.188Z,102414.03
2023-05-25T05:55:02.819Z,102416.28
2023-05-25T05:58:04.447Z,102424.00
2023-05-25T06:01:06.428Z,102422.03
2023-05-25T06:04:08.218Z,102419.16
2023-05-25T06:07:09.900Z,102431.81
2023-05-25T06:10:11.600Z,102429.72
2023-05-25T06:13:13.195Z,102440.56
2023-05-25T06:16:14.842Z,102433.25
2023-05-25T06:19:16.487Z,102435.78
2023-05-25T06:22:18.145Z,102444.56
2023-05-25T06:25:20.442Z,102432.13
2023-05-25T06:28:22.096Z,102431.03
2023-05-25T06:31:23.714Z,102440.66
2023-05-25T06:34:26.243Z,102449.44
2023-05-25T06:37:35.075Z,102449.25
2023-05-25T06:40:36.734Z,102444.56
2023-05-25T06:43:38.455Z,102439.03
2023-05-25T06:46:40.099Z,102453.91
2023-05-25T06:49:41.827Z,102451.91
2023-05-25T06:52:43.491Z,102458.69
2023-05-25T06:55:45.364Z,102456.63
2023-05-25T06:58:47.225Z,102465.34
2023-05-25T07:01:49.037Z,102453.66
2023-05-25T07:04:51.742Z,102461.53
2023-05-25T07:07:53.497Z,102473.00
2023-05-25T07:10:55.151Z,102471.88
2023-05-25T07:13:56.732Z,102475.19
2023-05-25T07:16:58.348Z,102480.41
2023-05-25T07:19:59.947Z,102484.56
2023-05-25T07:23:01.699Z,102481.75
2023-05-25T07:26:05.696Z,102487.44
2023-05-25T07:29:07.756Z,102489.47
2023-05-25T07:32:09.330Z,102479.22
2023-05-25T07:35:10.949Z,102485.06
2023-05-25T07:38:12.588Z,102491.03
2023-05-25T07:41:14.694Z,102492.69
2023-05-25T07:44:16.373Z,102488.22
2023-05-25T07:47:17.953Z,102498.69
2023-05-25T07:50:19.607Z,102502.00
2023-05-25T07:53:21.526Z,102493.78
2023-05-25T07:56:23.549Z,102506.84
2023-05-25T07:59:26.143Z,102505.72
2023-05-25T08:02:28.035Z,102513.56
2023-05-25T08:05:29.646Z,102506.19
2023-05-25T08:08:31.615Z,102511.28
2023-05-25T08:11:33.319Z,102519.00
2023-05-25T08:14:34.939Z,102515.38
2023-05-25T08:17:36.688Z,102517.13
2023-05-25T08:20:38.460Z,102528.59
2023-05-25T08:23:42.755Z,102523.97
2023-05-25T08:26:54.349Z,102531.84
2023-05-25T08:29:56.665Z,102524.41
2023-05-25T08:32:58.335Z,102516.84
2023-05-25T08:35:59.999Z,102523.72
2023-05-25T08:39:02.097Z,102525.38
2023-05-25T08:42:03.976Z,102527.13
2023-05-25T08:45:06.269Z,102526.09
2023-05-25T08:48:12.387Z,102533.94
2023-05-25T08:51:16.433Z,102532.91
2023-05-25T08:54:22.631Z,102537.47
2023-05-25T08:57:34.575Z,102538.22
2023-05-25T09:00:43.037Z,102541.66
2023-05-25T09:03:46.900Z,102541.56
2023-05-25T09:06:57.198Z,102537.19
2023-05-25T09:10:08.973Z,102538.75
2023-05-25T09:13:21.182Z,102535.84
2023-05-25T09:16:26.072Z,102537.47
2023-05-25T09:19:27.675Z,102542.53
2023-05-25T09:22:29.289Z,102551.00
2023-05-25T09:25:31.938Z,102553.38
2023-05-25T09:28:33.486Z,102551.47
2023-05-25T09:31:36.312Z,102557.41
2023-05-25T09:34:37.957Z,102563.28
2023-05-25T09:37:41.590Z,102566.59
2023-05-25T09:40:43.920Z,102575.25
2023-05-25T09:43:58.143Z,102573.09
2023-05-25T09:47:09.677Z,102583.38
2023-05-25T09:50:11.819Z,102589.16
2023-05-25T09:53:13.834Z,102594.28
2023-05-25T09:56:15.547Z,102592.28
2023-05-25T09:59:17.411Z,102589.31
2023-05-25T10:02:19.256Z,102595.28
2023-05-25T10:05:21.999Z,102594.91
2023-05-25T10:08:28.616Z,102606.34
2023-05-25T10:11:32.237Z,102602.13
2023-05-25T10:14:36.937Z,102601.72
2023-05-25T10:17:51.302Z,102596.13
2023-05-25T10:21:03.598Z,102606.16
2023-05-25T10:24:25.074Z,102600.41
2023-05-25T10:27:34.284Z,102617.22
2023-05-25T10:30:37.230Z,102605.50
2023-05-25T10:33:39.411Z,102610.88
2023-05-25T10:36:41.627Z,102615.19
2023-05-25T10:39:46.053Z,102605.50
2023-05-25T10:42:48.316Z,102604.69
2023-05-25T10:45:49.931Z,102608.28
2023-05-25T10:49:00.631Z,102621.81
2023-05-25T10:52:03.689Z,102611.94
2023-05-25T10:55:06.042Z,102619.13
2023-05-25T10:58:16.918Z,102613.00
2023-05-25T11:01:18.759Z,102619.03
2023-05-25T11:04:20.703Z,102616.06
2023-05-25T11:07:22.413Z,102613.22
2023-05-25T11:10:48.353Z,102617.09
2023-05-25T11:13:50.687Z,102618.63
2023-05-25T11:17:12.921Z,102612.16
2023-05-25T11:20:27.891Z,102611.28
2023-05-25T11:23:30.331Z,102604.97
2023-05-25T11:26:35.757Z,102611.44
2023-05-25T11:29:38.003Z,102600.59
2023-05-25T11:32:50.625Z,102600.69
2023-05-25T11:35:55.323Z,102598.78
2023-05-25T11:39:04.696Z,102599.00
2023-05-25T11:42:11.516Z,102601.56
2023-05-25T11:45:14.742Z,102586.16
2023-05-25T11:48:16.843Z,102593.53
2023-05-25T11:51:24.392Z,102585.97
2023-05-25T11:54:29.684Z,102585.75
2023-05-25T11:57:31.506Z,102587.31
2023-05-25T12:00:33.421Z,102591.03
2023-05-25T12:03:35.336Z,102590.38
2023-05-25T12:06:38.052Z,102594.19
2023-05-25T12:09:40.001Z,102591.00
2023-05-25T12:12:42.616Z,102595.53
2023-05-25T12:15:44.674Z,102589.88
2023-05-25T12:18:46.774Z,102595.94
2023-05-25T12:21:51.326Z,102590.25
2023-05-25T12:24:53.218Z,102602.34
2023-05-25T12:28:15.078Z,102603.47
2023-05-25T12:31:21.867Z,102600.78
2023-05-25T12:34:28.854Z,102578.69
2023-05-25T12:37:30.531Z,102583.13
2023-05-25T12:40:32.296Z,102576.56
2023-05-25T12:43:40.614Z,102581.44
2023-05-25T12:46:42.294Z,102584.69
2023-05-25T12:49:45.495Z,102571.88
2023-05-25T12:52:48.788Z,102580.31
2023-05-25T12:55:50.346Z,102583.34
2023-05-25T12:58:52.100Z,102573.91
2023-05-25T13:01:53.786Z,102577.88
2023-05-25T13:04:55.471Z,102574.38
2023-05-25T13:07:58.217Z,102575.84
2023-05-25T13:11:01.369Z,102572.81
2023-05-25T13:14:04.315Z,102579.28
2023-05-25T13:17:06.368Z,102579.28
2023-05-25T13:20:08.329Z,102581.22
2023-05-25T13:23:09.868Z,102589.69
2023-05-25T13:26:12.592Z,102586.16
2023-05-25T13:29:14.286Z,102591.31
2023-05-25T13:32:16.087Z,102580.78
2023-05-25T13:35:37.946Z,102580.31
2023-05-25T13:38:40.052Z,102583.75
2023-05-25T13:41:42.016Z,102580.78
2023-05-25T13:44:43.589Z,102575.84
2023-05-25T13:47:46.248Z,102587.28
2023-05-25T13:50:48.064Z,102584.25
2023-05-25T13:53:49.924Z,102589.22
2023-05-25T13:56:51.515Z,102578.06
2023-05-25T13:59:53.147Z,102580.75
2023-05-25T14:02:55.102Z,102583.75
2023-05-25T14:05:57.060Z,102575.13
2023-05-25T14:08:58.682Z,102576.28
2023-05-25T14:12:00.438Z,102576.50
2023-05-25T14:15:02.162Z,102572.59
2023-05-25T14:18:03.969Z,102570.09
2023-05-25T14:21:05.714Z,102583.00
2023-05-25T14:24:07.382Z,102575.34
2023-05-25T14:27:09.314Z,102571.22
2023-05-25T14:30:11.353Z,102567.88
2023-05-25T14:33:14.604Z,102580.56
2023-05-25T14:36:16.264Z,102573.97
2023-05-25T14:39:17.877Z,102582.06
2023-05-25T14:42:19.454Z,102567.09
2023-05-25T14:45:21.143Z,102572.38
2023-05-25T14:48:25.502Z,102573.06
2023-05-25T14:51:27.298Z,102566.69
2023-05-25T14:54:28.982Z,102566.81
2023-05-25T14:57:30.800Z,102570.66
2023-05-25T15:00:32.395Z,102576.44
2023-05-25T15:03:34.110Z,102576.59
2023-05-25T15:06:36.829Z,102580.00
2023-05-25T15:09:38.538Z,102571.34
2023-05-25T15:12:40.128Z,102576.94
2023-05-25T15:15:41.912Z,102575.28
2023-05-25T15:18:44.490Z,102580.78
2023-05-25T15:21:46.126Z,102566.78
2023-05-25T15:24:48.851Z,102574.84
2023-05-25T15:27:50.670Z,102566.19
2023-05-25T15:30:52.222Z,102566.56
2023-05-25T15:33:58.587Z,102562.53
2023-05-25T15:37:01.072Z,102556.31
2023-05-25T15:40:02.650Z,102566.09
2023-05-25T15:43:04.273Z,102572.44
2023-05-25T15:46:05.955Z,102561.88
2023-05-25T15:49:11.481Z,102556.69
2023-05-25T15:52:13.305Z,102566.88
2023-05-25T15:55:14.894Z,102568.19
2023-05-25T15:58:17.778Z,102570.28
2023-05-25T16:01:19.571Z,102573.97
2023-05-25T16:04:21.332Z,102574.03
2023-05-25T16:07:23.118Z,102574.13
2023-05-25T16:10:24.753Z,102572.41
2023-05-25T16:13:26.354Z,102575.09
2023-05-25T16:16:28.090Z,102565.41
2023-05-25T16:19:29.747Z,102567.50
2023-05-25T16:22:31.374Z,102566.72
2023-05-25T16:25:32.943Z,102564.31
2023-05-25T16:28:34.562Z,102574.38
2023-05-25T16:31:36.234Z,102563.81
2023-05-25T16:34:37.815Z,102571.94
2023-05-25T16:37:39.552Z,102573.00
2023-05-25T16:40:41.218Z,102567.16
2023-05-25T16:43:42.838Z,102568.31
2023-05-25T16:46:44.528Z,102565.97
2023-05-25T16:49:46.173Z,102562.69
2023-05-25T16:52:47.803Z,102561.00
2023-05-25T16:55:49.412Z,102553.88
2023-05-25T16:58:51.799Z,102560.19
2023-05-25T17:01:53.553Z,102556.84
2023-05-25T17:04:55.908Z,102562.38
2023-05-25T17:07:57.612Z,102562.56
2023-05-25T17:10:59.163Z,102564.66
2023-05-25T17:14:00.823Z,102568.47
2023-05-25T17:17:02.453Z,102565.09
2023-05-25T17:20:04.277Z,102568.16
2023-05-25T17:23:06.268Z,102566.78
2023-05-25T17:26:07.849Z,102561.00
2023-05-25T17:29:09.587Z,102557.78
2023-05-25T17:32:11.346Z,102558.03
2023-05-25T17:35:13.080Z,102568.06
2023-05-25T17:38:14.745Z,102561.41
2023-05-25T17:41:16.513Z,102570.75
2023-05-25T17:44:18.164Z,102563.84
2023-05-25T17:47:19.789Z,102568.66
2023-05-25T17:50:21.414Z,102578.88
2023-05-25T17:53:23.078Z,102587.19
2023-05-25T17:56:24.869Z,102576.78
2023-05-25T17:59:26.478Z,102582.81
2023-05-25T18:02:30.412Z,102586.78
2023-05-25T18:05:32.167Z,102587.19
2023-05-25T18:08:33.891Z,102589.34
2023-05-25T18:11:36.658Z,102592.81
2023-05-25T18:14:38.278Z,102589.25
2023-05-25T18:17:40.007Z,102581.53
2023-05-25T18:20:41.636Z,102585.59
2023-05-25T18:23:43.380Z,102582.50
2023-05-25T18:26:46.362Z,102585.47
2023-05-25T18:29:47.959Z,102582.25
2023-05-25T18:32:49.660Z,102576.44
2023-05-25T18:35:51.266Z,102590.31
2023-05-25T18:38:52.948Z,102586.13
2023-05-25T18:41:54.812Z,102584.56
2023-05-25T18:44:56.549Z,102576.75
2023-05-25T18:47:58.516Z,102581.63
2023-05-25T18:51:00.229Z,102579.41
2023-05-25T18:54:01.839Z,102577.13
2023-05-25T18:57:03.818Z,102581.13
2023-05-25T19:00:07.512Z,102572.69
2023-05-25T19:03:09.311Z,102578.44
2023-05-25T19:06:10.933Z,102570.88
2023-05-25T19:09:14.568Z,102578.34
2023-05-25T19:12:16.189Z,102589.31
2023-05-25T19:15:17.768Z,102582.38
2023-05-25T19:18:19.390Z,102576.44
2023-05-25T19:21:21.107Z,102579.47
2023-05-25T19:24:22.649Z,102584.25
2023-05-25T19:27:24.233Z,102583.69
2023-05-25T19:30:25.983Z,102585.75
2023-05-25T19:33:27.674Z,102601.97
2023-05-25T19:36:29.392Z,102603.69
2023-05-25T19:39:31.770Z,102597.88
2023-05-25T19:42:33.432Z,102601.72
2023-05-25T19:45:35.043Z,102606.44
2023-05-25T19:48:38.202Z,102612.09
2023-05-25T19:51:40.193Z,102623.03
2023-05-25T19:54:41.761Z,102623.31
2023-05-25T19:57:43.538Z,102629.72
2023-05-25T20:00:45.179Z,102629.91
2023-05-25T20:03:46.974Z,102627.47
2023-05-25T20:06:48.892Z,102631.22
2023-05-25T20:09:50.729Z,102635.00
2023-05-25T20:12:52.444Z,102632.44
2023-05-25T20:15:54.148Z,102629.09
2023-05-25T20:18:55.788Z,102625.63
2023-05-25T20:21:58.085Z,102626.66
2023-05-25T20:25:00.935Z,102620.66
2023-05-25T20:28:02.544Z,102621.81
2023-05-25T20:31:05.013Z,102629.94
2023-05-25T20:34:06.608Z,102637.19
2023-05-25T20:37:08.206Z,102627.66
2023-05-25T20:40:10.096Z,102631.38
2023-05-25T20:43:11.757Z,102626.16
2023-05-25T20:46:14.166Z,102632.50
2023-05-25T20:49:16.034Z,102640.56
2023-05-25T20:52:17.843Z,102630.22
2023-05-25T20:55:20.242Z,102636.53
2023-05-25T20:58:21.899Z,102629.59
2023-05-25T21:01:23.589Z,102626.19
2023-05-25T21:04:25.226Z,102630.72
2023-05-25T21:07:26.896Z,102627.28
2023-05-25T21:10:28.864Z,102629.16
2023-05-25T21:13:30.510Z,102639.09
2023-05-25T21:16:32.258Z,102633.88
2023-05-25T21:19:33.873Z,102634.88
2023-05-25T21:22:35.653Z,102639.41
2023-05-25T21:25:37.247Z,102635.97
2023-05-25T21:28:39.005Z,102630.03
2023-05-25T21:31:40.791Z,102636.34
2023-05-25T21:34:42.489Z,102640.00
2023-05-25T21:37:45.415Z,102632.13
2023-05-25T21:40:47.037Z,102639.44
2023-05-25T21:43:48.689Z,102642.16
2023-05-25T21:46:50.489Z,102639.56
2023-05-25T21:49:52.280Z,102642.25
2023-05-25T21:52:53.960Z,102646.75
2023-05-25T21:55:55.703Z,102650.28
2023-05-25T21:58:57.342Z,102647.59
2023-05-25T22:01:58.943Z,102645.94
2023-05-25T22:05:00.559Z,102645.19
2023-05-25T22:08:05.172Z,102655.84
2023-05-25T22:11:07.230Z,102646.19
2023-05-25T22:14:08.849Z,102648.03
2023-05-25T22:17:10.628Z,102646.63
2023-05-25T22:20:12.405Z,102648.59
2023-05-25T22:23:14.143Z,102651.44
2023-05-25T22:26:15.906Z,102649.03
2023-05-25T22:29:17.520Z,102653.66
2023-05-25T22:32:19.165Z,102647.75
2023-05-25T22:35:20.921Z,102648.81
2023-05-25T22:38:22.569Z,102644.59
2023-05-25T22:41:24.560Z,102641.25
2023-05-25T22:44:26.114Z,102646.72
2023-05-25T22:47:27.678Z,102645.19
2023-05-25T22:50:29.580Z,102650.72
2023-05-25T22:53:31.145Z,102652.66
2023-05-25T22:56:32.716Z,102651.03
2023-05-25T22:59:34.346Z,102651.25
2023-05-25T23:02:36.034Z,102655.81
2023-05-25T23:05:37.804Z,102661.28
2023-05-25T23:08:39.496Z,102661.44
2023-05-25T23:11:41.123Z,102660.81
2023-05-25T23:14:44.598Z,102656.50
2023-05-25T23:17:46.334Z,102662.03
2023-05-25T23:20:47.941Z,102661.31
2023-05-25T23:23:49.531Z,102666.81
2023-05-25T23:26:51.110Z,102661.72
2023-05-25T23:29:53.040Z,102657.44
2023-05-25T23:32:54.948Z,102661.16
2023-05-25T23:35:56.634Z,102660.44
2023-05-25T23:38:58.202Z,102657.94
2023-05-25T23:41:59.787Z,102663.41
2023-05-25T23:45:01.358Z,102661.81
2023-05-25T23:48:03.119Z,102655.84
2023-05-25T23:51:07.442Z,102661.31
2023-05-25T23:54:10.096Z,102670.31
2023-05-25T23:57:11.800Z,102666.94
